sensor_id;sensor_type;location;lat;lon;timestamp;P1;durP1;ratioP1;P2;durP2;ratioP2
23304;SDS011;11821;51.456;8.844;2023-01-29T00:01:05;21.15;;;12.52;;
23304;SDS011;11821;51.456;8.844;2023-01-29T00:03:32;17.25;;;11.55;;
23304;SDS011;11821;51.456;8.844;2023-01-29T00:06:00;21.48;;;11.55;;
23304;SDS011;11821;51.456;8.844;2023-01-29T00:08:34;17.75;;;10.82;;
23304;SDS011;11821;51.456;8.844;2023-01-29T00:11:02;19.00;;;11.67;;
23304;SDS011;11821;51.456;8.844;2023-01-29T00:13:29;17.38;;;10.18;;
23304;SDS011;11821;51.456;8.844;2023-01-29T00:15:57;20.45;;;12.02;;
23304;SDS011;11821;51.456;8.844;2023-01-29T00:18:24;20.02;;;12.63;;
23304;SDS011;11821;51.456;8.844;2023-01-29T00:20:52;20.85;;;12.05;;
23304;SDS011;11821;51.456;8.844;2023-01-29T00:23:19;21.98;;;12.50;;
23304;SDS011;11821;51.456;8.844;2023-01-29T00:25:59;18.50;;;10.90;;
23304;SDS011;11821;51.456;8.844;2023-01-29T00:28:26;20.05;;;11.30;;
23304;SDS011;11821;51.456;8.844;2023-01-29T00:30:55;17.25;;;11.05;;
23304;SDS011;11821;51.456;8.844;2023-01-29T00:33:21;17.42;;;11.30;;
23304;SDS011;11821;51.456;8.844;2023-01-29T00:35:48;17.17;;;11.60;;
23304;SDS011;11821;51.456;8.844;2023-01-29T00:38:16;19.70;;;11.45;;
23304;SDS011;11821;51.456;8.844;2023-01-29T00:40:43;21.52;;;12.65;;
23304;SDS011;11821;51.456;8.844;2023-01-29T00:43:34;20.40;;;11.68;;
23304;SDS011;11821;51.456;8.844;2023-01-29T00:46:22;19.63;;;10.80;;
23304;SDS011;11821;51.456;8.844;2023-01-29T00:48:49;21.65;;;12.23;;
23304;SDS011;11821;51.456;8.844;2023-01-29T00:51:19;22.88;;;11.63;;
23304;SDS011;11821;51.456;8.844;2023-01-29T00:53:49;18.02;;;11.32;;
23304;SDS011;11821;51.456;8.844;2023-01-29T00:56:16;22.30;;;12.20;;
23304;SDS011;11821;51.456;8.844;2023-01-29T00:58:43;18.63;;;11.00;;
23304;SDS011;11821;51.456;8.844;2023-01-29T01:01:12;17.65;;;11.48;;
23304;SDS011;11821;51.456;8.844;2023-01-29T01:03:40;19.23;;;11.27;;
23304;SDS011;11821;51.456;8.844;2023-01-29T01:06:11;19.85;;;12.23;;
23304;SDS011;11821;51.456;8.844;2023-01-29T01:08:40;19.73;;;12.43;;
23304;SDS011;11821;51.456;8.844;2023-01-29T01:11:25;16.05;;;10.05;;
23304;SDS011;11821;51.456;8.844;2023-01-29T01:13:52;22.20;;;11.68;;
23304;SDS011;11821;51.456;8.844;2023-01-29T01:16:19;20.80;;;11.63;;
23304;SDS011;11821;51.456;8.844;2023-01-29T01:18:46;19.27;;;11.48;;
23304;SDS011;11821;51.456;8.844;2023-01-29T01:21:13;18.90;;;11.40;;
23304;SDS011;11821;51.456;8.844;2023-01-29T01:23:40;19.98;;;11.63;;
23304;SDS011;11821;51.456;8.844;2023-01-29T01:26:07;20.73;;;10.63;;
23304;SDS011;11821;51.456;8.844;2023-01-29T01:28:36;20.05;;;11.00;;
23304;SDS011;11821;51.456;8.844;2023-01-29T01:31:07;15.93;;;8.83;;
23304;SDS011;11821;51.456;8.844;2023-01-29T01:33:37;17.30;;;10.80;;
23304;SDS011;11821;51.456;8.844;2023-01-29T01:36:05;20.35;;;12.35;;
23304;SDS011;11821;51.456;8.844;2023-01-29T01:38:36;18.92;;;11.52;;
23304;SDS011;11821;51.456;8.844;2023-01-29T01:41:10;18.73;;;10.88;;
23304;SDS011;11821;51.456;8.844;2023-01-29T01:46:32;20.50;;;10.65;;
23304;SDS011;11821;51.456;8.844;2023-01-29T01:49:04;16.08;;;11.00;;
23304;SDS011;11821;51.456;8.844;2023-01-29T01:51:33;17.75;;;11.57;;
23304;SDS011;11821;51.456;8.844;2023-01-29T01:54:17;18.63;;;10.47;;
23304;SDS011;11821;51.456;8.844;2023-01-29T01:56:48;18.30;;;11.57;;
23304;SDS011;11821;51.456;8.844;2023-01-29T01:59:24;17.42;;;11.38;;
23304;SDS011;11821;51.456;8.844;2023-01-29T02:01:52;18.35;;;10.90;;
23304;SDS011;11821;51.456;8.844;2023-01-29T02:04:20;21.33;;;10.13;;
23304;SDS011;11821;51.456;8.844;2023-01-29T02:07:08;22.15;;;11.95;;
23304;SDS011;11821;51.456;8.844;2023-01-29T02:12:28;24.00;;;11.85;;
23304;SDS011;11821;51.456;8.844;2023-01-29T02:14:59;24.00;;;11.80;;
23304;SDS011;11821;51.456;8.844;2023-01-29T02:17:26;21.30;;;10.82;;
23304;SDS011;11821;51.456;8.844;2023-01-29T02:23:15;18.10;;;10.70;;
23304;SDS011;11821;51.456;8.844;2023-01-29T02:30:45;16.25;;;10.68;;
23304;SDS011;11821;51.456;8.844;2023-01-29T02:33:18;20.23;;;11.13;;
23304;SDS011;11821;51.456;8.844;2023-01-29T02:36:03;21.10;;;10.68;;
23304;SDS011;11821;51.456;8.844;2023-01-29T02:39:22;18.35;;;11.63;;
23304;SDS011;11821;51.456;8.844;2023-01-29T02:44:05;16.85;;;10.68;;
23304;SDS011;11821;51.456;8.844;2023-01-29T02:46:41;19.13;;;11.25;;
23304;SDS011;11821;51.456;8.844;2023-01-29T02:51:44;19.13;;;10.40;;
23304;SDS011;11821;51.456;8.844;2023-01-29T02:57:03;21.25;;;11.65;;
23304;SDS011;11821;51.456;8.844;2023-01-29T02:59:39;16.17;;;10.02;;
23304;SDS011;11821;51.456;8.844;2023-01-29T03:02:12;20.38;;;11.27;;
23304;SDS011;11821;51.456;8.844;2023-01-29T03:04:48;20.55;;;11.68;;
23304;SDS011;11821;51.456;8.844;2023-01-29T03:07:28;18.52;;;10.30;;
23304;SDS011;11821;51.456;8.844;2023-01-29T03:10:16;18.23;;;11.75;;
23304;SDS011;11821;51.456;8.844;2023-01-29T03:12:45;22.70;;;10.55;;
23304;SDS011;11821;51.456;8.844;2023-01-29T03:15:15;18.58;;;11.50;;
23304;SDS011;11821;51.456;8.844;2023-01-29T03:17:59;24.00;;;11.68;;
23304;SDS011;11821;51.456;8.844;2023-01-29T03:20:29;19.58;;;10.93;;
23304;SDS011;11821;51.456;8.844;2023-01-29T03:23:13;21.10;;;11.40;;
23304;SDS011;11821;51.456;8.844;2023-01-29T03:25:42;24.30;;;10.80;;
23304;SDS011;11821;51.456;8.844;2023-01-29T03:28:29;18.90;;;10.85;;
23304;SDS011;11821;51.456;8.844;2023-01-29T03:31:16;19.10;;;10.10;;
23304;SDS011;11821;51.456;8.844;2023-01-29T03:34:11;18.23;;;10.88;;
23304;SDS011;11821;51.456;8.844;2023-01-29T03:36:56;20.83;;;10.88;;
23304;SDS011;11821;51.456;8.844;2023-01-29T03:39:26;16.40;;;10.50;;
23304;SDS011;11821;51.456;8.844;2023-01-29T03:44:37;19.05;;;11.68;;
23304;SDS011;11821;51.456;8.844;2023-01-29T03:47:18;18.67;;;9.98;;
23304;SDS011;11821;51.456;8.844;2023-01-29T03:59:54;19.73;;;10.70;;
23304;SDS011;11821;51.456;8.844;2023-01-29T04:02:45;20.70;;;10.77;;
23304;SDS011;11821;51.456;8.844;2023-01-29T04:05:21;18.90;;;10.10;;
23304;SDS011;11821;51.456;8.844;2023-01-29T04:08:06;18.48;;;10.52;;
23304;SDS011;11821;51.456;8.844;2023-01-29T04:10:35;21.13;;;11.00;;
23304;SDS011;11821;51.456;8.844;2023-01-29T04:13:09;19.90;;;11.25;;
23304;SDS011;11821;51.456;8.844;2023-01-29T04:18:05;20.25;;;10.63;;
23304;SDS011;11821;51.456;8.844;2023-01-29T04:20:51;18.42;;;10.25;;
23304;SDS011;11821;51.456;8.844;2023-01-29T04:23:28;20.98;;;10.35;;
23304;SDS011;11821;51.456;8.844;2023-01-29T04:25:59;16.30;;;9.68;;
23304;SDS011;11821;51.456;8.844;2023-01-29T04:31:11;19.80;;;10.02;;
23304;SDS011;11821;51.456;8.844;2023-01-29T04:39:05;17.35;;;10.52;;
23304;SDS011;11821;51.456;8.844;2023-01-29T04:41:36;20.90;;;11.50;;
23304;SDS011;11821;51.456;8.844;2023-01-29T04:44:09;16.92;;;10.32;;
23304;SDS011;11821;51.456;8.844;2023-01-29T04:46:56;17.30;;;10.18;;
23304;SDS011;11821;51.456;8.844;2023-01-29T04:49:41;17.23;;;11.00;;
23304;SDS011;11821;51.456;8.844;2023-01-29T04:52:14;19.10;;;9.73;;
23304;SDS011;11821;51.456;8.844;2023-01-29T04:59:38;15.38;;;9.60;;
23304;SDS011;11821;51.456;8.844;2023-01-29T05:02:06;20.40;;;9.90;;
23304;SDS011;11821;51.456;8.844;2023-01-29T05:04:34;15.20;;;9.20;;
23304;SDS011;11821;51.456;8.844;2023-01-29T05:07:03;18.83;;;9.90;;
23304;SDS011;11821;51.456;8.844;2023-01-29T05:09:31;17.98;;;10.07;;
23304;SDS011;11821;51.456;8.844;2023-01-29T05:11:59;16.67;;;9.30;;
23304;SDS011;11821;51.456;8.844;2023-01-29T05:14:26;16.77;;;9.98;;
23304;SDS011;11821;51.456;8.844;2023-01-29T05:16:55;16.52;;;9.55;;
23304;SDS011;11821;51.456;8.844;2023-01-29T05:19:22;14.80;;;8.80;;
23304;SDS011;11821;51.456;8.844;2023-01-29T05:21:49;20.20;;;9.35;;
23304;SDS011;11821;51.456;8.844;2023-01-29T05:24:17;14.25;;;9.05;;
23304;SDS011;11821;51.456;8.844;2023-01-29T05:26:45;13.73;;;8.57;;
23304;SDS011;11821;51.456;8.844;2023-01-29T05:29:31;12.43;;;8.57;;
23304;SDS011;11821;51.456;8.844;2023-01-29T05:31:57;15.15;;;9.15;;
23304;SDS011;11821;51.456;8.844;2023-01-29T05:34:24;13.82;;;8.20;;
23304;SDS011;11821;51.456;8.844;2023-01-29T05:36:51;16.15;;;9.25;;
23304;SDS011;11821;51.456;8.844;2023-01-29T05:39:18;12.48;;;8.35;;
23304;SDS011;11821;51.456;8.844;2023-01-29T05:41:45;14.27;;;9.40;;
23304;SDS011;11821;51.456;8.844;2023-01-29T05:44:12;14.00;;;8.50;;
23304;SDS011;11821;51.456;8.844;2023-01-29T05:46:38;13.25;;;8.10;;
23304;SDS011;11821;51.456;8.844;2023-01-29T05:49:05;14.80;;;9.30;;
23304;SDS011;11821;51.456;8.844;2023-01-29T05:51:32;13.70;;;8.48;;
23304;SDS011;11821;51.456;8.844;2023-01-29T05:53:58;13.23;;;8.18;;
23304;SDS011;11821;51.456;8.844;2023-01-29T05:56:25;14.30;;;8.63;;
23304;SDS011;11821;51.456;8.844;2023-01-29T05:58:51;11.95;;;8.80;;
23304;SDS011;11821;51.456;8.844;2023-01-29T06:01:22;15.57;;;8.95;;
23304;SDS011;11821;51.456;8.844;2023-01-29T06:03:49;11.13;;;6.63;;
23304;SDS011;11821;51.456;8.844;2023-01-29T06:06:16;13.93;;;8.43;;
23304;SDS011;11821;51.456;8.844;2023-01-29T06:08:43;14.05;;;8.88;;
23304;SDS011;11821;51.456;8.844;2023-01-29T06:11:15;16.35;;;8.93;;
23304;SDS011;11821;51.456;8.844;2023-01-29T06:13:43;13.60;;;8.05;;
23304;SDS011;11821;51.456;8.844;2023-01-29T06:16:10;13.98;;;9.43;;
23304;SDS011;11821;51.456;8.844;2023-01-29T06:18:37;15.52;;;8.95;;
23304;SDS011;11821;51.456;8.844;2023-01-29T06:21:05;16.70;;;9.32;;
23304;SDS011;11821;51.456;8.844;2023-01-29T06:23:32;13.25;;;7.95;;
23304;SDS011;11821;51.456;8.844;2023-01-29T06:26:02;14.73;;;8.50;;
23304;SDS011;11821;51.456;8.844;2023-01-29T06:28:29;14.55;;;8.48;;
23304;SDS011;11821;51.456;8.844;2023-01-29T06:30:56;15.30;;;8.90;;
23304;SDS011;11821;51.456;8.844;2023-01-29T06:33:24;18.33;;;8.65;;
23304;SDS011;11821;51.456;8.844;2023-01-29T06:35:55;13.07;;;8.18;;
23304;SDS011;11821;51.456;8.844;2023-01-29T06:38:22;10.55;;;6.47;;
23304;SDS011;11821;51.456;8.844;2023-01-29T06:40:48;16.30;;;9.25;;
23304;SDS011;11821;51.456;8.844;2023-01-29T06:43:15;15.27;;;8.77;;
23304;SDS011;11821;51.456;8.844;2023-01-29T06:45:46;17.23;;;8.32;;
23304;SDS011;11821;51.456;8.844;2023-01-29T06:48:13;13.93;;;8.50;;
23304;SDS011;11821;51.456;8.844;2023-01-29T06:50:40;15.38;;;9.30;;
23304;SDS011;11821;51.456;8.844;2023-01-29T06:53:06;13.52;;;8.18;;
23304;SDS011;11821;51.456;8.844;2023-01-29T06:55:33;18.95;;;8.35;;
23304;SDS011;11821;51.456;8.844;2023-01-29T06:58:03;18.13;;;9.70;;
23304;SDS011;11821;51.456;8.844;2023-01-29T07:00:30;21.85;;;10.68;;
23304;SDS011;11821;51.456;8.844;2023-01-29T07:02:56;22.08;;;12.38;;
23304;SDS011;11821;51.456;8.844;2023-01-29T07:05:23;21.63;;;10.48;;
23304;SDS011;11821;51.456;8.844;2023-01-29T07:07:50;17.33;;;8.77;;
23304;SDS011;11821;51.456;8.844;2023-01-29T07:10:16;12.40;;;8.00;;
23304;SDS011;11821;51.456;8.844;2023-01-29T07:12:43;15.38;;;8.55;;
23304;SDS011;11821;51.456;8.844;2023-01-29T07:15:10;12.73;;;8.25;;
23304;SDS011;11821;51.456;8.844;2023-01-29T07:17:44;16.95;;;8.38;;
23304;SDS011;11821;51.456;8.844;2023-01-29T07:20:10;13.98;;;9.07;;
23304;SDS011;11821;51.456;8.844;2023-01-29T07:22:37;16.75;;;9.40;;
23304;SDS011;11821;51.456;8.844;2023-01-29T07:25:04;16.23;;;9.38;;
23304;SDS011;11821;51.456;8.844;2023-01-29T07:27:30;16.75;;;9.32;;
23304;SDS011;11821;51.456;8.844;2023-01-29T07:29:59;18.40;;;9.50;;
23304;SDS011;11821;51.456;8.844;2023-01-29T07:32:27;13.07;;;8.05;;
23304;SDS011;11821;51.456;8.844;2023-01-29T07:34:53;13.30;;;8.57;;
23304;SDS011;11821;51.456;8.844;2023-01-29T07:37:20;14.38;;;8.88;;
23304;SDS011;11821;51.456;8.844;2023-01-29T07:39:46;14.13;;;9.48;;
23304;SDS011;11821;51.456;8.844;2023-01-29T07:42:13;18.73;;;9.60;;
23304;SDS011;11821;51.456;8.844;2023-01-29T07:44:39;20.23;;;9.50;;
23304;SDS011;11821;51.456;8.844;2023-01-29T07:47:06;18.83;;;10.20;;
23304;SDS011;11821;51.456;8.844;2023-01-29T07:49:32;18.50;;;10.30;;
23304;SDS011;11821;51.456;8.844;2023-01-29T07:51:59;18.90;;;9.55;;
23304;SDS011;11821;51.456;8.844;2023-01-29T07:54:25;17.73;;;10.63;;
23304;SDS011;11821;51.456;8.844;2023-01-29T07:56:52;12.73;;;8.23;;
23304;SDS011;11821;51.456;8.844;2023-01-29T07:59:18;14.60;;;9.00;;
23304;SDS011;11821;51.456;8.844;2023-01-29T08:01:45;18.63;;;9.98;;
23304;SDS011;11821;51.456;8.844;2023-01-29T08:04:11;13.18;;;8.82;;
23304;SDS011;11821;51.456;8.844;2023-01-29T08:06:38;13.15;;;7.95;;
23304;SDS011;11821;51.456;8.844;2023-01-29T08:09:04;16.65;;;8.68;;
23304;SDS011;11821;51.456;8.844;2023-01-29T08:11:31;13.82;;;8.80;;
23304;SDS011;11821;51.456;8.844;2023-01-29T08:13:58;23.88;;;13.02;;
23304;SDS011;11821;51.456;8.844;2023-01-29T08:16:24;18.63;;;11.35;;
23304;SDS011;11821;51.456;8.844;2023-01-29T08:18:51;14.93;;;9.95;;
23304;SDS011;11821;51.456;8.844;2023-01-29T08:21:17;19.42;;;11.15;;
23304;SDS011;11821;51.456;8.844;2023-01-29T08:23:44;17.35;;;10.13;;
23304;SDS011;11821;51.456;8.844;2023-01-29T08:26:11;14.48;;;9.15;;
23304;SDS011;11821;51.456;8.844;2023-01-29T08:28:37;20.75;;;9.95;;
23304;SDS011;11821;51.456;8.844;2023-01-29T08:31:11;16.25;;;10.75;;
23304;SDS011;11821;51.456;8.844;2023-01-29T08:33:37;14.70;;;9.60;;
23304;SDS011;11821;51.456;8.844;2023-01-29T08:36:04;14.73;;;9.10;;
23304;SDS011;11821;51.456;8.844;2023-01-29T08:38:30;16.15;;;9.35;;
23304;SDS011;11821;51.456;8.844;2023-01-29T08:40:57;16.60;;;10.02;;
23304;SDS011;11821;51.456;8.844;2023-01-29T08:43:23;18.00;;;9.82;;
23304;SDS011;11821;51.456;8.844;2023-01-29T08:45:50;19.75;;;10.77;;
23304;SDS011;11821;51.456;8.844;2023-01-29T08:48:16;15.85;;;10.75;;
23304;SDS011;11821;51.456;8.844;2023-01-29T08:50:43;13.48;;;8.68;;
23304;SDS011;11821;51.456;8.844;2023-01-29T08:53:10;14.63;;;9.60;;
23304;SDS011;11821;51.456;8.844;2023-01-29T08:55:37;18.92;;;10.13;;
23304;SDS011;11821;51.456;8.844;2023-01-29T08:58:04;17.02;;;10.50;;
23304;SDS011;11821;51.456;8.844;2023-01-29T09:00:31;20.17;;;9.50;;
23304;SDS011;11821;51.456;8.844;2023-01-29T09:02:58;15.43;;;9.35;;
23304;SDS011;11821;51.456;8.844;2023-01-29T09:05:26;12.77;;;8.50;;
23304;SDS011;11821;51.456;8.844;2023-01-29T09:07:53;15.45;;;8.10;;
23304;SDS011;11821;51.456;8.844;2023-01-29T09:10:26;15.52;;;8.48;;
23304;SDS011;11821;51.456;8.844;2023-01-29T09:12:53;14.43;;;8.43;;
23304;SDS011;11821;51.456;8.844;2023-01-29T09:15:19;13.65;;;8.57;;
23304;SDS011;11821;51.456;8.844;2023-01-29T09:17:46;13.70;;;8.27;;
23304;SDS011;11821;51.456;8.844;2023-01-29T09:20:13;14.20;;;7.88;;
23304;SDS011;11821;51.456;8.844;2023-01-29T09:22:40;16.80;;;7.80;;
23304;SDS011;11821;51.456;8.844;2023-01-29T09:25:07;10.88;;;7.03;;
23304;SDS011;11821;51.456;8.844;2023-01-29T09:27:35;15.02;;;8.05;;
23304;SDS011;11821;51.456;8.844;2023-01-29T09:30:02;12.68;;;8.30;;
23304;SDS011;11821;51.456;8.844;2023-01-29T09:32:29;17.48;;;8.73;;
23304;SDS011;11821;51.456;8.844;2023-01-29T09:34:55;16.42;;;8.32;;
23304;SDS011;11821;51.456;8.844;2023-01-29T09:37:22;17.75;;;9.32;;
23304;SDS011;11821;51.456;8.844;2023-01-29T09:39:49;15.75;;;8.10;;
23304;SDS011;11821;51.456;8.844;2023-01-29T09:47:24;14.48;;;8.65;;
23304;SDS011;11821;51.456;8.844;2023-01-29T09:49:54;14.73;;;8.35;;
23304;SDS011;11821;51.456;8.844;2023-01-29T09:52:45;15.27;;;8.80;;
23304;SDS011;11821;51.456;8.844;2023-01-29T09:55:11;13.02;;;7.88;;
23304;SDS011;11821;51.456;8.844;2023-01-29T09:57:41;13.48;;;8.50;;
23304;SDS011;11821;51.456;8.844;2023-01-29T10:00:12;16.25;;;9.95;;
23304;SDS011;11821;51.456;8.844;2023-01-29T10:25:44;13.23;;;8.35;;
23304;SDS011;11821;51.456;8.844;2023-01-29T10:28:17;12.48;;;7.68;;
23304;SDS011;11821;51.456;8.844;2023-01-29T10:30:49;11.13;;;7.70;;
23304;SDS011;11821;51.456;8.844;2023-01-29T10:33:18;10.75;;;6.80;;
23304;SDS011;11821;51.456;8.844;2023-01-29T10:35:47;13.80;;;8.40;;
23304;SDS011;11821;51.456;8.844;2023-01-29T10:41:12;12.05;;;7.70;;
23304;SDS011;11821;51.456;8.844;2023-01-29T10:55:03;10.50;;;6.20;;
23304;SDS011;11821;51.456;8.844;2023-01-29T11:00:21;11.50;;;6.68;;
23304;SDS011;11821;51.456;8.844;2023-01-29T11:02:49;10.93;;;6.47;;
23304;SDS011;11821;51.456;8.844;2023-01-29T11:07:42;27.55;;;13.15;;
23304;SDS011;11821;51.456;8.844;2023-01-29T11:10:16;18.00;;;10.80;;
23304;SDS011;11821;51.456;8.844;2023-01-29T11:12:44;14.52;;;7.10;;
23304;SDS011;11821;51.456;8.844;2023-01-29T11:15:25;9.45;;;6.00;;
23304;SDS011;11821;51.456;8.844;2023-01-29T11:20:31;14.35;;;8.27;;
23304;SDS011;11821;51.456;8.844;2023-01-29T11:22:58;10.65;;;6.90;;
23304;SDS011;11821;51.456;8.844;2023-01-29T11:25:24;12.77;;;7.50;;
23304;SDS011;11821;51.456;8.844;2023-01-29T11:27:54;11.15;;;7.10;;
23304;SDS011;11821;51.456;8.844;2023-01-29T11:30:23;13.60;;;7.38;;
23304;SDS011;11821;51.456;8.844;2023-01-29T11:35:32;11.43;;;7.03;;
23304;SDS011;11821;51.456;8.844;2023-01-29T11:38:12;21.77;;;10.48;;
23304;SDS011;11821;51.456;8.844;2023-01-29T11:40:43;11.18;;;7.20;;
23304;SDS011;11821;51.456;8.844;2023-01-29T11:43:27;10.88;;;7.65;;
23304;SDS011;11821;51.456;8.844;2023-01-29T11:45:55;8.57;;;5.53;;
23304;SDS011;11821;51.456;8.844;2023-01-29T11:48:26;5.32;;;3.92;;
23304;SDS011;11821;51.456;8.844;2023-01-29T11:50:56;6.35;;;4.32;;
23304;SDS011;11821;51.456;8.844;2023-01-29T11:53:31;4.00;;;2.95;;
23304;SDS011;11821;51.456;8.844;2023-01-29T11:55:59;5.85;;;4.20;;
23304;SDS011;11821;51.456;8.844;2023-01-29T11:58:28;5.82;;;3.63;;
23304;SDS011;11821;51.456;8.844;2023-01-29T12:00:55;6.72;;;4.10;;
23304;SDS011;11821;51.456;8.844;2023-01-29T12:03:39;6.57;;;3.45;;
23304;SDS011;11821;51.456;8.844;2023-01-29T12:06:07;5.28;;;3.97;;
23304;SDS011;11821;51.456;8.844;2023-01-29T12:08:38;6.60;;;3.90;;
23304;SDS011;11821;51.456;8.844;2023-01-29T12:11:22;6.07;;;4.47;;
23304;SDS011;11821;51.456;8.844;2023-01-29T12:13:53;6.53;;;3.67;;
23304;SDS011;11821;51.456;8.844;2023-01-29T12:18:52;5.18;;;3.70;;
23304;SDS011;11821;51.456;8.844;2023-01-29T12:21:26;4.57;;;3.65;;
23304;SDS011;11821;51.456;8.844;2023-01-29T12:26:38;3.55;;;3.13;;
23304;SDS011;11821;51.456;8.844;2023-01-29T12:29:16;6.20;;;3.80;;
23304;SDS011;11821;51.456;8.844;2023-01-29T12:31:47;5.00;;;3.58;;
23304;SDS011;11821;51.456;8.844;2023-01-29T12:34:21;7.25;;;3.88;;
23304;SDS011;11821;51.456;8.844;2023-01-29T12:37:05;5.75;;;3.22;;
23304;SDS011;11821;51.456;8.844;2023-01-29T12:39:36;5.20;;;3.33;;
23304;SDS011;11821;51.456;8.844;2023-01-29T12:42:04;4.10;;;3.25;;
23304;SDS011;11821;51.456;8.844;2023-01-29T12:44:35;6.03;;;4.03;;
23304;SDS011;11821;51.456;8.844;2023-01-29T12:47:07;8.50;;;4.70;;
23304;SDS011;11821;51.456;8.844;2023-01-29T12:49:37;5.13;;;4.38;;
23304;SDS011;11821;51.456;8.844;2023-01-29T12:52:15;6.32;;;4.22;;
23304;SDS011;11821;51.456;8.844;2023-01-29T12:54:47;5.50;;;3.97;;
23304;SDS011;11821;51.456;8.844;2023-01-29T12:59:42;6.78;;;4.75;;
23304;SDS011;11821;51.456;8.844;2023-01-29T13:04:56;6.28;;;4.72;;
23304;SDS011;11821;51.456;8.844;2023-01-29T13:07:27;6.90;;;4.50;;
23304;SDS011;11821;51.456;8.844;2023-01-29T13:10:02;7.55;;;5.70;;
23304;SDS011;11821;51.456;8.844;2023-01-29T13:12:30;6.80;;;4.95;;
23304;SDS011;11821;51.456;8.844;2023-01-29T13:14:58;5.68;;;4.57;;
23304;SDS011;11821;51.456;8.844;2023-01-29T13:20:41;8.85;;;6.00;;
23304;SDS011;11821;51.456;8.844;2023-01-29T13:22:42;11.23;;;6.45;;
23304;SDS011;11821;51.456;8.844;2023-01-29T13:25:16;7.43;;;5.03;;
23304;SDS011;11821;51.456;8.844;2023-01-29T13:27:43;8.30;;;5.85;;
23304;SDS011;11821;51.456;8.844;2023-01-29T13:32:51;9.02;;;6.10;;
23304;SDS011;11821;51.456;8.844;2023-01-29T13:35:18;8.15;;;6.68;;
23304;SDS011;11821;51.456;8.844;2023-01-29T13:37:48;7.82;;;6.22;;
23304;SDS011;11821;51.456;8.844;2023-01-29T13:40:25;10.50;;;6.60;;
23304;SDS011;11821;51.456;8.844;2023-01-29T13:42:52;10.70;;;7.13;;
23304;SDS011;11821;51.456;8.844;2023-01-29T13:45:24;9.88;;;6.25;;
23304;SDS011;11821;51.456;8.844;2023-01-29T13:47:51;8.57;;;5.65;;
23304;SDS011;11821;51.456;8.844;2023-01-29T13:52:52;10.35;;;6.18;;
23304;SDS011;11821;51.456;8.844;2023-01-29T13:55:27;11.10;;;8.30;;
23304;SDS011;11821;51.456;8.844;2023-01-29T13:57:56;13.15;;;8.60;;
23304;SDS011;11821;51.456;8.844;2023-01-29T14:10:24;10.35;;;7.30;;
23304;SDS011;11821;51.456;8.844;2023-01-29T14:13:24;10.50;;;6.88;;
23304;SDS011;11821;51.456;8.844;2023-01-29T14:15:44;11.23;;;8.20;;
23304;SDS011;11821;51.456;8.844;2023-01-29T14:18:14;14.20;;;8.30;;
23304;SDS011;11821;51.456;8.844;2023-01-29T14:23:57;10.95;;;7.55;;
23304;SDS011;11821;51.456;8.844;2023-01-29T14:28:32;11.80;;;8.48;;
23304;SDS011;11821;51.456;8.844;2023-01-29T14:30:59;12.68;;;8.85;;
23304;SDS011;11821;51.456;8.844;2023-01-29T14:33:34;15.50;;;9.77;;
23304;SDS011;11821;51.456;8.844;2023-01-29T14:36:06;14.88;;;9.93;;
23304;SDS011;11821;51.456;8.844;2023-01-29T14:38:34;18.25;;;10.10;;
23304;SDS011;11821;51.456;8.844;2023-01-29T14:41:06;14.38;;;9.90;;
23304;SDS011;11821;51.456;8.844;2023-01-29T14:43:37;12.15;;;8.05;;
23304;SDS011;11821;51.456;8.844;2023-01-29T14:48:49;16.38;;;9.88;;
23304;SDS011;11821;51.456;8.844;2023-01-29T14:51:16;14.45;;;9.43;;
23304;SDS011;11821;51.456;8.844;2023-01-29T14:54:04;15.52;;;9.85;;
23304;SDS011;11821;51.456;8.844;2023-01-29T14:56:42;14.93;;;9.18;;
23304;SDS011;11821;51.456;8.844;2023-01-29T14:59:16;11.60;;;7.60;;
23304;SDS011;11821;51.456;8.844;2023-01-29T15:01:54;9.07;;;7.30;;
23304;SDS011;11821;51.456;8.844;2023-01-29T15:11:54;14.48;;;8.13;;
23304;SDS011;11821;51.456;8.844;2023-01-29T15:14:25;9.35;;;7.15;;
23304;SDS011;11821;51.456;8.844;2023-01-29T15:17:04;8.88;;;6.82;;
23304;SDS011;11821;51.456;8.844;2023-01-29T15:19:36;46.55;;;22.70;;
23304;SDS011;11821;51.456;8.844;2023-01-29T15:22:05;11.93;;;7.53;;
23304;SDS011;11821;51.456;8.844;2023-01-29T15:24:33;8.25;;;6.78;;
23304;SDS011;11821;51.456;8.844;2023-01-29T15:27:04;9.88;;;6.80;;
23304;SDS011;11821;51.456;8.844;2023-01-29T15:29:31;12.88;;;7.80;;
23304;SDS011;11821;51.456;8.844;2023-01-29T15:31:58;9.52;;;7.60;;
23304;SDS011;11821;51.456;8.844;2023-01-29T15:34:25;10.80;;;6.47;;
23304;SDS011;11821;51.456;8.844;2023-01-29T15:36:52;8.15;;;6.03;;
23304;SDS011;11821;51.456;8.844;2023-01-29T15:39:20;11.10;;;6.30;;
23304;SDS011;11821;51.456;8.844;2023-01-29T15:41:48;10.00;;;7.03;;
23304;SDS011;11821;51.456;8.844;2023-01-29T15:46:44;7.78;;;5.82;;
23304;SDS011;11821;51.456;8.844;2023-01-29T15:49:29;8.43;;;6.35;;
23304;SDS011;11821;51.456;8.844;2023-01-29T15:51:57;10.48;;;5.78;;
23304;SDS011;11821;51.456;8.844;2023-01-29T15:54:25;8.18;;;5.97;;
23304;SDS011;11821;51.456;8.844;2023-01-29T15:56:55;8.07;;;5.93;;
23304;SDS011;11821;51.456;8.844;2023-01-29T15:59:24;8.30;;;6.47;;
23304;SDS011;11821;51.456;8.844;2023-01-29T16:01:51;10.95;;;6.30;;
23304;SDS011;11821;51.456;8.844;2023-01-29T16:04:27;7.60;;;5.70;;
23304;SDS011;11821;51.456;8.844;2023-01-29T16:06:56;9.75;;;6.40;;
23304;SDS011;11821;51.456;8.844;2023-01-29T16:09:24;10.13;;;6.68;;
23304;SDS011;11821;51.456;8.844;2023-01-29T16:11:52;12.40;;;7.05;;
23304;SDS011;11821;51.456;8.844;2023-01-29T16:14:20;6.90;;;5.55;;
23304;SDS011;11821;51.456;8.844;2023-01-29T16:16:50;10.32;;;6.20;;
23304;SDS011;11821;51.456;8.844;2023-01-29T16:19:27;8.32;;;6.47;;
23304;SDS011;11821;51.456;8.844;2023-01-29T16:21:55;7.68;;;5.78;;
23304;SDS011;11821;51.456;8.844;2023-01-29T16:24:22;10.20;;;6.30;;
23304;SDS011;11821;51.456;8.844;2023-01-29T16:26:50;8.98;;;6.13;;
23304;SDS011;11821;51.456;8.844;2023-01-29T16:29:17;12.45;;;6.43;;
23304;SDS011;11821;51.456;8.844;2023-01-29T16:31:45;10.43;;;6.43;;
23304;SDS011;11821;51.456;8.844;2023-01-29T16:34:15;8.35;;;6.50;;
23304;SDS011;11821;51.456;8.844;2023-01-29T16:36:44;8.15;;;3.78;;
23304;SDS011;11821;51.456;8.844;2023-01-29T16:39:25;9.20;;;6.25;;
23304;SDS011;11821;51.456;8.844;2023-01-29T16:46:52;7.43;;;5.68;;
23304;SDS011;11821;51.456;8.844;2023-01-29T16:51:52;8.32;;;6.45;;
23304;SDS011;11821;51.456;8.844;2023-01-29T16:54:23;10.50;;;6.53;;
23304;SDS011;11821;51.456;8.844;2023-01-29T16:56:51;9.43;;;6.15;;
23304;SDS011;11821;51.456;8.844;2023-01-29T16:59:36;11.02;;;7.18;;
23304;SDS011;11821;51.456;8.844;2023-01-29T17:02:08;11.25;;;6.70;;
23304;SDS011;11821;51.456;8.844;2023-01-29T17:04:38;8.13;;;6.65;;
23304;SDS011;11821;51.456;8.844;2023-01-29T17:07:05;8.82;;;6.57;;
23304;SDS011;11821;51.456;8.844;2023-01-29T17:09:33;13.70;;;6.47;;
23304;SDS011;11821;51.456;8.844;2023-01-29T17:12:01;10.93;;;6.60;;
23304;SDS011;11821;51.456;8.844;2023-01-29T17:14:29;10.65;;;6.40;;
23304;SDS011;11821;51.456;8.844;2023-01-29T17:17:14;11.73;;;7.28;;
23304;SDS011;11821;51.456;8.844;2023-01-29T17:19:42;10.77;;;7.38;;
23304;SDS011;11821;51.456;8.844;2023-01-29T17:22:08;11.30;;;8.18;;
23304;SDS011;11821;51.456;8.844;2023-01-29T17:24:39;12.07;;;7.63;;
23304;SDS011;11821;51.456;8.844;2023-01-29T17:27:06;12.18;;;7.82;;
23304;SDS011;11821;51.456;8.844;2023-01-29T17:29:32;12.02;;;7.55;;